^^
Saratoga-Weather Station Historical Data
Daily Summary for September 16, 2021 Units:  Metric    English   Both
Daily Weekly Monthly Yearly Custom
  High: Low: Average:
Temperature: 19.9 °C 13 °C 16.9 °C
Dew Point: 16.5 °C 11.7 °C 13.4 °C
Humidity: 94% 60% 81%
Wind Speed: 13km/h 0km/h 2.4km/h
Wind Gust: 17.7km/h - -
Wind- - WSW
Pressure: 1017.6 hPa 1012.9 hPa -
Precipitation: 0.0 mm    
Historical Graphs
 
 
Tabular Data for September 16, 2021
Time Temperature Dew Point Pressure Wind Wind Speed Wind Gust Humidity Rainfall Rate (Hourly) solar
00:00 17.5 °C 16.5 °C 1012.9 hPa WSW 3.2 km/h 3.2 km/h 94% 0.0 mm 0 W/m2
00:05 17.5 °C 16.5 °C 1012.9 hPa WSW 3.2 km/h 3.2 km/h 94% 0.0 mm 0 W/m2
00:10 17.4 °C 16.4 °C 1012.9 hPa Calm     94% 0.0 mm 0 W/m2
00:15 17.4 °C 16.4 °C 1012.9 hPa WNW 3.2 km/h 4.8 km/h 94% 0.0 mm 0 W/m2
00:20 17.4 °C 16.3 °C 1013.2 hPa West 1.4 km/h 4.8 km/h 93% 0.0 mm 0 W/m2
00:25 17.3 °C 16.2 °C 1013.2 hPa West 1.4 km/h 6.4 km/h 93% 0.0 mm 0 W/m2
00:30 17.3 °C 16.2 °C 1013.2 hPa West 3.2 km/h 6.4 km/h 93% 0.0 mm 0 W/m2
00:35 17.2 °C 15.9 °C 1013.2 hPa Calm   3.2 km/h 92% 0.0 mm 0 W/m2
00:40 17.2 °C 16.1 °C 1013.5 hPa West 3.2 km/h 6.4 km/h 93% 0.0 mm 0 W/m2
00:45 17.1 °C 16 °C 1013.2 hPa WSW 1.4 km/h 3.2 km/h 93% 0.0 mm 0 W/m2
00:50 17 °C 15.9 °C 1013.2 hPa Calm   3.2 km/h 93% 0.0 mm 0 W/m2
00:55 17 °C 15.9 °C 1013.5 hPa West 3.2 km/h 4.8 km/h 93% 0.0 mm 0 W/m2
01:00 16.9 °C 15.8 °C 1013.5 hPa Calm   1.6 km/h 93% 0.0 mm 0 W/m2
01:05 16.9 °C 15.8 °C 1013.5 hPa WSW 1.4 km/h 4.8 km/h 93% 0.0 mm 0 W/m2
01:10 16.9 °C 15.8 °C 1013.5 hPa WSW 3.2 km/h 4.8 km/h 93% 0.0 mm 0 W/m2
01:15 16.8 °C 15.7 °C 1013.5 hPa West 3.2 km/h 4.8 km/h 93% 0.0 mm 0 W/m2
01:20 16.8 °C 15.7 °C 1013.5 hPa West 4.7 km/h 6.4 km/h 93% 0.0 mm 0 W/m2
01:25 16.8 °C 15.7 °C 1013.5 hPa WSW 3.2 km/h 6.4 km/h 93% 0.0 mm 0 W/m2
01:30 16.7 °C 15.6 °C 1013.5 hPa West 4.7 km/h 6.4 km/h 93% 0.0 mm 0 W/m2
01:35 16.7 °C 15.6 °C 1013.5 hPa West 4.7 km/h 9.7 km/h 93% 0.0 mm 0 W/m2
01:40 16.7 °C 15.6 °C 1013.5 hPa West 3.2 km/h 6.4 km/h 93% 0.0 mm 0 W/m2
01:46 16.6 °C 15.5 °C 1013.5 hPa West 6.4 km/h 9.7 km/h 93% 0.0 mm 0 W/m2
01:51 16.6 °C 15.5 °C 1013.5 hPa West 3.2 km/h 8 km/h 93% 0.0 mm 0 W/m2
01:56 16.7 °C 15.6 °C 1013.5 hPa WSW 1.4 km/h 3.2 km/h 93% 0.0 mm 0 W/m2
02:01 16.7 °C 15.6 °C 1013.5 hPa WSW 1.4 km/h 8 km/h 93% 0.0 mm 0 W/m2
02:06 16.6 °C 15.5 °C 1013.5 hPa WSW 3.2 km/h 6.4 km/h 93% 0.0 mm 0 W/m2
02:11 16.6 °C 15.5 °C 1013.5 hPa WSW 1.4 km/h 3.2 km/h 93% 0.0 mm 0 W/m2
02:16 16.5 °C 15.4 °C 1013.5 hPa Calm   3.2 km/h 93% 0.0 mm 0 W/m2
02:21 16.4 °C 15.3 °C 1013.9 hPa Calm   4.8 km/h 93% 0.0 mm 0 W/m2
02:26 16.4 °C 15.3 °C 1013.9 hPa Calm     93% 0.0 mm 0 W/m2
02:31 16.3 °C 15.2 °C 1013.9 hPa Calm     93% 0.0 mm 0 W/m2
02:36 16.3 °C 15.2 °C 1013.9 hPa West 3.2 km/h 3.2 km/h 93% 0.0 mm 0 W/m2
02:41 16.3 °C 15.2 °C 1013.9 hPa Calm     93% 0.0 mm 0 W/m2
02:46 16.3 °C 15.2 °C 1013.9 hPa Calm     93% 0.0 mm 0 W/m2
02:51 16.3 °C 15.2 °C 1013.9 hPa Calm     93% 0.0 mm 0 W/m2
02:56 16.3 °C 15.3 °C 1013.9 hPa Calm     94% 0.0 mm 0 W/m2
03:01 16.2 °C 15.1 °C 1013.9 hPa Calm   1.6 km/h 93% 0.0 mm 0 W/m2
03:06 16.2 °C 15.1 °C 1013.9 hPa Calm   1.6 km/h 93% 0.0 mm 0 W/m2
03:11 16.2 °C 15.1 °C 1013.9 hPa Calm     93% 0.0 mm 0 W/m2
03:16 16.3 °C 15.2 °C 1013.9 hPa Calm     93% 0.0 mm 0 W/m2
03:21 16.3 °C 15.2 °C 1014.2 hPa Calm     93% 0.0 mm 0 W/m2
03:26 16.3 °C 15.2 °C 1014.2 hPa Calm     93% 0.0 mm 0 W/m2
03:31 16.2 °C 15.1 °C 1014.2 hPa Calm   1.6 km/h 93% 0.0 mm 0 W/m2
03:36 16.2 °C 15.1 °C 1014.2 hPa West 1.4 km/h 4.8 km/h 93% 0.0 mm 0 W/m2
03:41 16.1 °C 15 °C 1014.2 hPa West 1.4 km/h 3.2 km/h 93% 0.0 mm 0 W/m2
03:46 16.1 °C 15 °C 1013.9 hPa WSW 1.4 km/h 3.2 km/h 93% 0.0 mm 0 W/m2
03:51 16 °C 14.9 °C 1013.9 hPa WSW 3.2 km/h 3.2 km/h 93% 0.0 mm 0 W/m2
03:56 15.9 °C 14.8 °C 1013.9 hPa WSW 3.2 km/h 4.8 km/h 93% 0.0 mm 0 W/m2
04:01 15.9 °C 14.8 °C 1013.9 hPa West 4.7 km/h 4.8 km/h 93% 0.0 mm 0 W/m2
04:06 15.8 °C 14.7 °C 1013.9 hPa WSW 1.4 km/h 4.8 km/h 93% 0.0 mm 0 W/m2
04:11 15.8 °C 14.7 °C 1013.9 hPa West 3.2 km/h 3.2 km/h 93% 0.0 mm 0 W/m2
04:16 15.7 °C 14.6 °C 1014.2 hPa WSW 3.2 km/h 4.8 km/h 93% 0.0 mm 0 W/m2
04:21 15.7 °C 14.6 °C 1014.2 hPa West 1.4 km/h 3.2 km/h 93% 0.0 mm 0 W/m2
04:26 15.7 °C 14.6 °C 1013.9 hPa West 1.4 km/h 4.8 km/h 93% 0.0 mm 0 W/m2
04:31 15.7 °C 14.7 °C 1013.9 hPa West 1.4 km/h 3.2 km/h 94% 0.0 mm 0 W/m2
04:36 15.8 °C 14.8 °C 1014.2 hPa WNW 1.4 km/h 4.8 km/h 94% 0.0 mm 0 W/m2
04:41 15.8 °C 14.8 °C 1014.2 hPa WNW 3.2 km/h 3.2 km/h 94% 0.0 mm 0 W/m2
04:46 15.8 °C 14.8 °C 1014.2 hPa WNW 3.2 km/h 3.2 km/h 94% 0.0 mm 0 W/m2
04:51 15.8 °C 14.8 °C 1014.2 hPa West 1.4 km/h 3.2 km/h 94% 0.0 mm 0 W/m2
04:56 15.8 °C 14.8 °C 1014.2 hPa West 1.4 km/h 4.8 km/h 94% 0.0 mm 0 W/m2
05:01 15.8 °C 14.8 °C 1014.2 hPa WNW 3.2 km/h 4.8 km/h 94% 0.0 mm 0 W/m2
05:06 15.8 °C 14.7 °C 1014.2 hPa West 3.2 km/h 4.8 km/h 93% 0.0 mm 0 W/m2
05:11 15.8 °C 14.7 °C 1014.2 hPa WNW 3.2 km/h 4.8 km/h 93% 0.0 mm 0 W/m2
05:16 15.9 °C 14.8 °C 1014.2 hPa WNW 4.7 km/h 6.4 km/h 93% 0.0 mm 0 W/m2
05:21 15.9 °C 14.8 °C 1014.2 hPa West 3.2 km/h 3.2 km/h 93% 0.0 mm 0 W/m2
05:26 15.9 °C 14.8 °C 1014.2 hPa WSW 1.4 km/h 6.4 km/h 93% 0.0 mm 0 W/m2
05:31 15.9 °C 14.8 °C 1014.2 hPa WNW 4.7 km/h 6.4 km/h 93% 0.0 mm 0 W/m2
05:36 15.9 °C 14.8 °C 1014.6 hPa West 3.2 km/h 4.8 km/h 93% 0.0 mm 0 W/m2
05:41 15.9 °C 14.8 °C 1014.2 hPa West 3.2 km/h 6.4 km/h 93% 0.0 mm 0 W/m2
05:46 15.9 °C 14.8 °C 1014.2 hPa WNW 4.7 km/h 4.8 km/h 93% 0.0 mm 0 W/m2
05:51 15.8 °C 14.7 °C 1014.6 hPa West 4.7 km/h 4.8 km/h 93% 0.0 mm 0 W/m2
05:56 15.9 °C 14.8 °C 1014.6 hPa West 1.4 km/h 3.2 km/h 93% 0.0 mm 0 W/m2
06:01 15.9 °C 14.8 °C 1014.6 hPa Calm   1.6 km/h 93% 0.0 mm 0 W/m2
06:07 15.8 °C 14.7 °C 1014.6 hPa West 3.2 km/h 6.4 km/h 93% 0.0 mm 0 W/m2
06:12 15.8 °C 14.7 °C 1014.6 hPa WNW 3.2 km/h 6.4 km/h 93% 0.0 mm 0 W/m2
06:17 15.8 °C 14.7 °C 1014.6 hPa West 3.2 km/h 9.7 km/h 93% 0.0 mm 0 W/m2
06:22 15.8 °C 14.7 °C 1014.6 hPa WNW 4.7 km/h 4.8 km/h 93% 0.0 mm 0 W/m2
06:27 15.8 °C 14.7 °C 1014.9 hPa West 3.2 km/h 8 km/h 93% 0.0 mm 0 W/m2
06:32 15.8 °C 14.7 °C 1014.9 hPa WNW 3.2 km/h 6.4 km/h 93% 0.0 mm 0 W/m2
06:37 15.8 °C 14.5 °C 1014.9 hPa WNW 3.2 km/h 6.4 km/h 92% 0.0 mm 0 W/m2
06:42 15.8 °C 14.5 °C 1014.9 hPa West 6.4 km/h 9.7 km/h 92% 0.0 mm 0 W/m2
06:47 15.7 °C 14.1 °C 1014.9 hPa NW 3.2 km/h 6.4 km/h 90% 0.0 mm 0 W/m2
06:52 15.7 °C 14.1 °C 1014.9 hPa WNW 4.7 km/h 4.8 km/h 90% 0.0 mm 0 W/m2
06:57 15.7 °C 14.1 °C 1014.9 hPa WNW 1.4 km/h 4.8 km/h 90% 0.0 mm 0 W/m2
07:02 15.6 °C 14 °C 1014.9 hPa WSW 4.7 km/h 4.8 km/h 90% 0.0 mm 0 W/m2
07:07 15.6 °C 14 °C 1014.9 hPa NW 1.4 km/h 6.4 km/h 90% 0.0 mm 0 W/m2
07:12 15.5 °C 13.9 °C 1015.2 hPa WNW 3.2 km/h 6.4 km/h 90% 0.0 mm 0 W/m2
07:17 15.4 °C 13.8 °C 1015.2 hPa West 3.2 km/h 4.8 km/h 90% 0.0 mm 0 W/m2
07:22 15.4 °C 13.8 °C 1015.2 hPa WNW 4.7 km/h 8 km/h 90% 0.0 mm 0 W/m2
07:27 15.4 °C 13.8 °C 1015.2 hPa West 3.2 km/h 4.8 km/h 90% 0.0 mm 0 W/m2
07:32 15.4 °C 13.8 °C 1015.2 hPa West 3.2 km/h 8 km/h 90% 0.0 mm 5 W/m2
07:37 15.4 °C 13.9 °C 1015.2 hPa WNW 6.4 km/h 6.4 km/h 91% 0.0 mm 9 W/m2
07:42 15.4 °C 13.9 °C 1015.2 hPa NW 1.4 km/h 6.4 km/h 91% 0.0 mm 12 W/m2
07:47 15.4 °C 13.9 °C 1015.2 hPa WSW 1.4 km/h 4.8 km/h 91% 0.0 mm 16 W/m2
07:52 15.3 °C 13.8 °C 1015.2 hPa West 3.2 km/h 8 km/h 91% 0.0 mm 19 W/m2
07:57 15.3 °C 13.7 °C 1015.2 hPa WSW 4.7 km/h 11.3 km/h 90% 0.0 mm 21 W/m2
08:02 15.2 °C 13.4 °C 1015.2 hPa WSW 6.4 km/h 6.4 km/h 89% 0.0 mm 23 W/m2
08:07 15.2 °C 13.4 °C 1015.6 hPa WNW 3.2 km/h 11.3 km/h 89% 0.0 mm 28 W/m2
08:12 15.2 °C 13.4 °C 1015.6 hPa NW 4.7 km/h 11.3 km/h 89% 0.0 mm 39 W/m2
08:17 15.1 °C 13.3 °C 1015.6 hPa WSW 4.7 km/h 9.7 km/h 89% 0.0 mm 44 W/m2
08:22 15.1 °C 13.3 °C 1015.6 hPa WNW 1.4 km/h 11.3 km/h 89% 0.0 mm 46 W/m2
08:27 15.1 °C 13.3 °C 1015.6 hPa West 3.2 km/h 4.8 km/h 89% 0.0 mm 40 W/m2
08:32 14.9 °C 13.1 °C 1015.9 hPa NW 3.2 km/h 4.8 km/h 89% 0.0 mm 35 W/m2
08:37 14.9 °C 13.1 °C 1015.9 hPa NW 1.4 km/h 3.2 km/h 89% 0.0 mm 51 W/m2
08:42 14.8 °C 13 °C 1015.9 hPa NNW 1.4 km/h 3.2 km/h 89% 0.0 mm 72 W/m2
08:47 14.8 °C 13 °C 1015.9 hPa NW 1.4 km/h 6.4 km/h 89% 0.0 mm 58 W/m2
08:52 14.8 °C 12.8 °C 1015.9 hPa NW 1.4 km/h 3.2 km/h 88% 0.0 mm 70 W/m2
08:57 15 °C 12.9 °C 1015.9 hPa NNE 1.4 km/h 4.8 km/h 87% 0.0 mm 211 W/m2
09:02 15.1 °C 12.8 °C 1015.9 hPa NW 4.7 km/h 6.4 km/h 86% 0.0 mm 232 W/m2
09:07 15.3 °C 13 °C 1015.9 hPa NW 3.2 km/h 6.4 km/h 86% 0.0 mm 244 W/m2
09:12 15.3 °C 12.6 °C 1015.9 hPa WSW 4.7 km/h 6.4 km/h 84% 0.0 mm 255 W/m2
09:17 15.4 °C 12.5 °C 1015.9 hPa ENE 4.7 km/h 4.8 km/h 83% 0.0 mm 264 W/m2
09:22 15.7 °C 13 °C 1016.3 hPa Calm   1.6 km/h 84% 0.0 mm 279 W/m2
09:27 15.8 °C 12.9 °C 1016.3 hPa Calm   3.2 km/h 83% 0.0 mm 290 W/m2
09:32 16.1 °C 12.8 °C 1016.3 hPa ENE 1.4 km/h 4.8 km/h 81% 0.0 mm 292 W/m2
09:37 16.4 °C 12.9 °C 1016.3 hPa ENE 3.2 km/h 4.8 km/h 80% 0.0 mm 320 W/m2
09:42 16.6 °C 12.9 °C 1016.3 hPa Calm   6.4 km/h 79% 0.0 mm 316 W/m2
09:47 16.7 °C 13 °C 1016.3 hPa NE 3.2 km/h 4.8 km/h 79% 0.0 mm 246 W/m2
09:52 16.8 °C 12.7 °C 1016.6 hPa NE 1.4 km/h 4.8 km/h 77% 0.0 mm 301 W/m2
09:57 16.8 °C 12.7 °C 1016.6 hPa NNW 1.4 km/h 6.4 km/h 77% 0.0 mm 378 W/m2
10:02 16.7 °C 12.6 °C 1016.6 hPa North 4.7 km/h 8 km/h 77% 0.0 mm 67 W/m2
10:07 16.6 °C 12.7 °C 1016.6 hPa West 6.4 km/h 8 km/h 78% 0.0 mm 394 W/m2
10:12 16.5 °C 12.5 °C 1016.6 hPa NE 1.4 km/h 4.8 km/h 77% 0.0 mm 130 W/m2
10:17 16.6 °C 12.6 °C 1016.9 hPa WSW 1.4 km/h 9.7 km/h 77% 0.0 mm 362 W/m2
10:22 16.7 °C 12.6 °C 1016.9 hPa NW 13 km/h 12.9 km/h 77% 0.0 mm 455 W/m2
10:27 16.6 °C 12.6 °C 1016.9 hPa NNE 4.7 km/h 8 km/h 77% 0.0 mm 512 W/m2
10:32 16.8 °C 12.5 °C 1016.9 hPa NNW 12.9 km/h 12.9 km/h 76% 0.0 mm 547 W/m2
10:37 17 °C 12.7 °C 1016.9 hPa WNW 1.4 km/h 12.9 km/h 76% 0.0 mm 552 W/m2
10:42 16.9 °C 12.4 °C 1016.9 hPa West 1.4 km/h 6.4 km/h 75% 0.0 mm 200 W/m2
10:47 16.9 °C 12.6 °C 1016.9 hPa ESE 4.7 km/h 8 km/h 76% 0.0 mm 619 W/m2
10:52 17.2 °C 12.7 °C 1016.9 hPa East 3.2 km/h 14.5 km/h 75% 0.0 mm 628 W/m2
10:57 17.5 °C 12.8 °C 1016.9 hPa NE 1.4 km/h 6.4 km/h 74% 0.0 mm 661 W/m2
11:02 17.8 °C 12.7 °C 1016.9 hPa ESE 7.9 km/h 11.3 km/h 72% 0.0 mm 668 W/m2
11:07 17.9 °C 12.8 °C 1016.9 hPa NNW 4.7 km/h 11.3 km/h 72% 0.0 mm 193 W/m2
11:12 17.4 °C 12.3 °C 1016.9 hPa West 3.2 km/h 9.7 km/h 72% 0.0 mm 404 W/m2
11:17 17.1 °C 12.4 °C 1016.9 hPa NE 1.4 km/h 4.8 km/h 74% 0.0 mm 116 W/m2
11:22 16.9 °C 12.4 °C 1016.9 hPa WNW 1.4 km/h 9.7 km/h 75% 0.0 mm 127 W/m2
11:27 16.7 °C 12.4 °C 1016.9 hPa WNW 4.7 km/h 6.4 km/h 76% 0.0 mm 130 W/m2
11:32 16.6 °C 12.4 °C 1016.9 hPa WNW 1.4 km/h 9.7 km/h 76% 0.0 mm 151 W/m2
11:37 16.8 °C 12.5 °C 1016.9 hPa WSW 7.9 km/h 9.7 km/h 76% 0.0 mm 301 W/m2
11:42 17.1 °C 12.8 °C 1016.9 hPa NNW 3.2 km/h 14.5 km/h 76% 0.0 mm 703 W/m2
11:47 17.4 °C 12.7 °C 1016.9 hPa WSW 3.2 km/h 6.4 km/h 74% 0.0 mm 675 W/m2
11:52 17.8 °C 12.9 °C 1016.9 hPa SW 1.4 km/h 9.7 km/h 73% 0.0 mm 747 W/m2
11:57 18 °C 12.9 °C 1016.9 hPa ENE 13 km/h 12.9 km/h 72% 0.0 mm 791 W/m2
12:02 18.1 °C 12.5 °C 1016.9 hPa ESE 1.4 km/h 3.2 km/h 70% 0.0 mm 258 W/m2
12:07 18.1 °C 12.8 °C 1016.9 hPa West 6.4 km/h 8 km/h 71% 0.0 mm 202 W/m2
12:12 17.9 °C 12.4 °C 1016.9 hPa WNW 1.4 km/h 9.7 km/h 70% 0.0 mm 206 W/m2
12:17 17.9 °C 12.4 °C 1016.9 hPa NE 4.7 km/h 11.3 km/h 70% 0.0 mm 206 W/m2
12:23 18.2 °C 12.9 °C 1016.9 hPa ESE 3.2 km/h 9.7 km/h 71% 0.0 mm 199 W/m2
12:28 18.2 °C 12.4 °C 1016.9 hPa SE 3.2 km/h 6.4 km/h 69% 0.0 mm 257 W/m2
12:33 18.3 °C 12.7 °C 1016.9 hPa West 3.2 km/h 8 km/h 70% 0.0 mm 712 W/m2
12:38 18.4 °C 12.6 °C 1016.9 hPa West 3.2 km/h 8 km/h 69% 0.0 mm 751 W/m2
12:43 18.6 °C 12.8 °C 1016.6 hPa Calm   4.8 km/h 69% 0.0 mm 163 W/m2
12:48 18.7 °C 12.4 °C 1016.6 hPa ENE 1.4 km/h 6.4 km/h 67% 0.0 mm 744 W/m2
12:53 18.9 °C 12.6 °C 1016.9 hPa ENE 7.9 km/h 8 km/h 67% 0.0 mm 793 W/m2
12:58 19.1 °C 12.6 °C 1016.9 hPa ESE 4.7 km/h 6.4 km/h 66% 0.0 mm 874 W/m2
13:03 19.2 °C 12.7 °C 1016.9 hPa ESE 1.4 km/h 9.7 km/h 66% 0.0 mm 916 W/m2
13:08 19.3 °C 12.6 °C 1016.6 hPa NE 3.2 km/h 6.4 km/h 65% 0.0 mm 243 W/m2
13:13 19.2 °C 12.7 °C 1016.6 hPa Calm   9.7 km/h 66% 0.0 mm 248 W/m2
13:18 19.1 °C 12.6 °C 1016.6 hPa West 4.7 km/h 11.3 km/h 66% 0.0 mm 432 W/m2
13:23 18.9 °C 12.6 °C 1016.6 hPa Calm   1.6 km/h 67% 0.0 mm 246 W/m2
13:28 18.9 °C 12.6 °C 1016.6 hPa Calm   1.6 km/h 67% 0.0 mm 244 W/m2
13:33 18.9 °C 12.9 °C 1016.6 hPa Calm   1.6 km/h 68% 0.0 mm 251 W/m2
13:38 19.1 °C 13.3 °C 1016.9 hPa Calm   1.6 km/h 69% 0.0 mm 809 W/m2
13:43 19.2 °C 12.9 °C 1016.9 hPa NE 1.4 km/h 3.2 km/h 67% 0.0 mm 367 W/m2
13:48 19.2 °C 12.7 °C 1016.9 hPa NNE 1.4 km/h 6.4 km/h 66% 0.0 mm 221 W/m2
13:53 19.2 °C 12.7 °C 1016.9 hPa SW 1.4 km/h 3.2 km/h 66% 0.0 mm 174 W/m2
13:58 19.1 °C 12.6 °C 1016.9 hPa Calm   4.8 km/h 66% 0.0 mm 171 W/m2
14:03 19.1 °C 12.6 °C 1016.9 hPa Calm   4.8 km/h 66% 0.0 mm 185 W/m2
14:08 19.1 °C 12.4 °C 1016.9 hPa WNW 3.2 km/h 3.2 km/h 65% 0.0 mm 230 W/m2
14:13 18.9 °C 12.6 °C 1016.9 hPa NNW 1.4 km/h 3.2 km/h 67% 0.0 mm 329 W/m2
14:18 18.9 °C 12.6 °C 1016.9 hPa West 3.2 km/h 11.3 km/h 67% 0.0 mm 199 W/m2
14:23 18.8 °C 12.5 °C 1016.9 hPa Calm   4.8 km/h 67% 0.0 mm 121 W/m2
14:28 18.7 °C 12.7 °C 1016.6 hPa NW 4.7 km/h 11.3 km/h 68% 0.0 mm 100 W/m2
14:33 18.6 °C 12.4 °C 1016.6 hPa WNW 1.4 km/h 11.3 km/h 67% 0.0 mm 104 W/m2
14:38 18.6 °C 12.6 °C 1016.6 hPa NNW 1.4 km/h 4.8 km/h 68% 0.0 mm 130 W/m2
14:43 18.6 °C 12.6 °C 1016.6 hPa West 4.7 km/h 11.3 km/h 68% 0.0 mm 183 W/m2
14:48 18.7 °C 12.7 °C 1016.6 hPa Calm   1.6 km/h 68% 0.0 mm 241 W/m2
14:53 18.8 °C 12.8 °C 1016.6 hPa West 4.7 km/h 4.8 km/h 68% 0.0 mm 272 W/m2
14:58 18.8 °C 12.3 °C 1016.6 hPa Calm   3.2 km/h 66% 0.0 mm 283 W/m2
15:03 18.9 °C 12.6 °C 1016.6 hPa NNW 1.4 km/h 6.4 km/h 67% 0.0 mm 281 W/m2
15:08 19 °C 12.5 °C 1016.6 hPa West 1.4 km/h 4.8 km/h 66% 0.0 mm 287 W/m2
15:13 19 °C 12.5 °C 1016.3 hPa ENE 3.2 km/h 6.4 km/h 66% 0.0 mm 306 W/m2
15:18 19.1 °C 12.8 °C 1016.3 hPa NW 1.4 km/h 4.8 km/h 67% 0.0 mm 179 W/m2
15:23 19.1 °C 12.8 °C 1016.3 hPa NW 1.4 km/h 9.7 km/h 67% 0.0 mm 135 W/m2
15:28 19 °C 12.5 °C 1016.3 hPa WNW 3.2 km/h 11.3 km/h 66% 0.0 mm 139 W/m2
15:33 18.8 °C 12.5 °C 1016.6 hPa NW 7.9 km/h 8 km/h 67% 0.0 mm 156 W/m2
15:38 18.8 °C 12.5 °C 1016.6 hPa WNW 3.2 km/h 8 km/h 67% 0.0 mm 171 W/m2
15:43 18.8 °C 12.8 °C 1016.3 hPa NNW 3.2 km/h 4.8 km/h 68% 0.0 mm 186 W/m2
15:48 18.9 °C 12.9 °C 1016.3 hPa NW 3.2 km/h 4.8 km/h 68% 0.0 mm 192 W/m2
15:53 18.8 °C 12.8 °C 1016.6 hPa WSW 7.9 km/h 11.3 km/h 68% 0.0 mm 190 W/m2
15:58 18.8 °C 12.8 °C 1016.6 hPa NW 3.2 km/h 6.4 km/h 68% 0.0 mm 163 W/m2
16:03 18.8 °C 12.8 °C 1016.6 hPa West 6.4 km/h 17.7 km/h 68% 0.0 mm 125 W/m2
16:08 18.6 °C 12.6 °C 1016.6 hPa West 4.7 km/h 11.3 km/h 68% 0.0 mm 113 W/m2
16:13 18.4 °C 12.6 °C 1016.6 hPa West 1.4 km/h 9.7 km/h 69% 0.0 mm 107 W/m2
16:18 18.4 °C 12.8 °C 1016.6 hPa NNW 6.4 km/h 6.4 km/h 70% 0.0 mm 111 W/m2
16:23 18.5 °C 12.7 °C 1016.3 hPa WNW 4.7 km/h 6.4 km/h 69% 0.0 mm 109 W/m2
16:28 18.4 °C 12.4 °C 1016.6 hPa West 4.7 km/h 9.7 km/h 68% 0.0 mm 105 W/m2
16:33 18.3 °C 12.3 °C 1016.3 hPa WSW 4.7 km/h 11.3 km/h 68% 0.0 mm 105 W/m2
16:38 18.3 °C 12.3 °C 1016.6 hPa WNW 6.4 km/h 9.7 km/h 68% 0.0 mm 102 W/m2
16:43 18.3 °C 12.3 °C 1016.3 hPa NW 1.4 km/h 6.4 km/h 68% 0.0 mm 128 W/m2
16:48 18.4 °C 12.6 °C 1016.3 hPa WNW 1.4 km/h 4.8 km/h 69% 0.0 mm 141 W/m2
16:53 18.4 °C 12.4 °C 1016.3 hPa Calm   1.6 km/h 68% 0.0 mm 155 W/m2
16:58 18.6 °C 12.8 °C 1016.3 hPa Calm   3.2 km/h 69% 0.0 mm 190 W/m2
17:03 18.8 °C 13 °C 1016.3 hPa West 1.4 km/h 3.2 km/h 69% 0.0 mm 188 W/m2
17:08 18.8 °C 12.8 °C 1016.3 hPa West 3.2 km/h 3.2 km/h 68% 0.0 mm 165 W/m2
17:13 18.8 °C 12.5 °C 1016.3 hPa NNW 1.4 km/h 9.7 km/h 67% 0.0 mm 227 W/m2
17:18 19 °C 12.7 °C 1016.3 hPa West 1.4 km/h 3.2 km/h 67% 0.0 mm 276 W/m2
17:23 19.3 °C 12.8 °C 1016.3 hPa NNE 1.4 km/h 4.8 km/h 66% 0.0 mm 380 W/m2
17:28 19.5 °C 12.3 °C 1016.3 hPa WNW 4.7 km/h 14.5 km/h 63% 0.0 mm 348 W/m2
17:33 19.4 °C 12.2 °C 1016.3 hPa WNW 1.4 km/h 4.8 km/h 63% 0.0 mm 211 W/m2
17:38 19.3 °C 12.3 °C 1016.3 hPa WNW 6.4 km/h 9.7 km/h 64% 0.0 mm 315 W/m2
17:44 19.3 °C 12.1 °C 1016.3 hPa NNW 3.2 km/h 11.3 km/h 63% 0.0 mm 332 W/m2
17:49 19.4 °C 12.2 °C 1016.3 hPa WNW 4.7 km/h 6.4 km/h 63% 0.0 mm 287 W/m2
17:54 19.4 °C 12.4 °C 1016.3 hPa West 4.7 km/h 6.4 km/h 64% 0.0 mm 251 W/m2
17:59 19.4 °C 11.9 °C 1016.3 hPa NW 1.4 km/h 6.4 km/h 62% 0.0 mm 141 W/m2
18:04 19.5 °C 12 °C 1016.3 hPa NE 1.4 km/h 4.8 km/h 62% 0.0 mm 139 W/m2
18:09 19.6 °C 12.1 °C 1016.3 hPa North 6.4 km/h 6.4 km/h 62% 0.0 mm 104 W/m2
18:14 19.7 °C 12.2 °C 1016.3 hPa ENE 3.2 km/h 3.2 km/h 62% 0.0 mm 220 W/m2
18:19 19.7 °C 12.2 °C 1016.3 hPa WNW 3.2 km/h 4.8 km/h 62% 0.0 mm 202 W/m2
18:24 19.9 °C 11.9 °C 1016.3 hPa ESE 3.2 km/h 4.8 km/h 60% 0.0 mm 211 W/m2
18:29 19.9 °C 12.2 °C 1016.3 hPa ESE 1.4 km/h 4.8 km/h 61% 0.0 mm 181 W/m2
18:34 19.9 °C 11.9 °C 1016.3 hPa ESE 3.2 km/h 4.8 km/h 60% 0.0 mm 162 W/m2
18:39 19.9 °C 12.2 °C 1016.3 hPa Calm   3.2 km/h 61% 0.0 mm 62 W/m2
18:44 19.7 °C 12 °C 1016.3 hPa SE 1.4 km/h 4.8 km/h 61% 0.0 mm 123 W/m2
18:49 19.6 °C 13.1 °C 1016.3 hPa Calm     66% 0.0 mm 49 W/m2
18:54 19.2 °C 13.4 °C 1016.3 hPa SSE 1.4 km/h 1.6 km/h 69% 0.0 mm 40 W/m2
18:59 18.8 °C 12.5 °C 1016.3 hPa Calm   3.2 km/h 67% 0.0 mm 40 W/m2
19:04 18.5 °C 12.7 °C 1016.3 hPa Calm     69% 0.0 mm 39 W/m2
19:09 18.3 °C 13 °C 1016.3 hPa WNW 1.4 km/h 3.2 km/h 71% 0.0 mm 26 W/m2
19:14 18.1 °C 12.3 °C 1016.3 hPa Calm   4.8 km/h 69% 0.0 mm 23 W/m2
19:19 17.9 °C 12.6 °C 1016.3 hPa West 1.4 km/h 1.6 km/h 71% 0.0 mm 21 W/m2
19:24 17.7 °C 12.6 °C 1016.3 hPa SW 1.4 km/h 1.6 km/h 72% 0.0 mm 14 W/m2
19:29 17.5 °C 12.4 °C 1016.3 hPa SW 1.4 km/h 3.2 km/h 72% 0.0 mm 11 W/m2
19:34 17.3 °C 12.4 °C 1016.3 hPa SW 1.4 km/h 6.4 km/h 73% 0.0 mm 7 W/m2
19:39 17.2 °C 12.3 °C 1016.3 hPa WSW 3.2 km/h 4.8 km/h 73% 0.0 mm 5 W/m2
19:44 17.1 °C 12.4 °C 1016.3 hPa WNW 3.2 km/h 4.8 km/h 74% 0.0 mm 5 W/m2
19:49 17.1 °C 12.4 °C 1016.3 hPa West 3.2 km/h 3.2 km/h 74% 0.0 mm 0 W/m2
19:54 16.9 °C 12.4 °C 1016.3 hPa West 3.2 km/h 4.8 km/h 75% 0.0 mm 0 W/m2
19:59 16.8 °C 12.3 °C 1016.3 hPa West 4.7 km/h 6.4 km/h 75% 0.0 mm 0 W/m2
20:04 16.7 °C 12.2 °C 1016.6 hPa West 3.2 km/h 4.8 km/h 75% 0.0 mm 0 W/m2
20:09 16.7 °C 12.4 °C 1016.6 hPa WSW 3.2 km/h 6.4 km/h 76% 0.0 mm 0 W/m2
20:14 16.6 °C 12.4 °C 1016.6 hPa West 4.7 km/h 6.4 km/h 76% 0.0 mm 0 W/m2
20:19 16.6 °C 12.4 °C 1016.6 hPa West 1.4 km/h 3.2 km/h 76% 0.0 mm 0 W/m2
20:24 16.6 °C 12.4 °C 1016.6 hPa Calm   6.4 km/h 76% 0.0 mm 0 W/m2
20:29 16.6 °C 12.6 °C 1016.6 hPa Calm   3.2 km/h 77% 0.0 mm 0 W/m2
20:34 16.6 °C 12.6 °C 1016.6 hPa WSW 3.2 km/h 4.8 km/h 77% 0.0 mm 0 W/m2
20:39 16.5 °C 12.7 °C 1016.6 hPa WSW 3.2 km/h 3.2 km/h 78% 0.0 mm 0 W/m2
20:44 16.4 °C 12.6 °C 1016.6 hPa Calm   3.2 km/h 78% 0.0 mm 0 W/m2
20:49 16.4 °C 12.6 °C 1016.6 hPa West 1.4 km/h 6.4 km/h 78% 0.0 mm 0 W/m2
20:54 16.3 °C 12.5 °C 1016.9 hPa West 1.4 km/h 3.2 km/h 78% 0.0 mm 0 W/m2
20:59 16.3 °C 12.7 °C 1016.9 hPa Calm   6.4 km/h 79% 0.0 mm 0 W/m2
21:04 16.3 °C 12.7 °C 1016.9 hPa Calm   1.6 km/h 79% 0.0 mm 0 W/m2
21:09 16.3 °C 12.7 °C 1016.9 hPa Calm   1.6 km/h 79% 0.0 mm 0 W/m2
21:14 16.3 °C 12.8 °C 1016.9 hPa Calm   1.6 km/h 80% 0.0 mm 0 W/m2
21:19 16.2 °C 12.7 °C 1016.9 hPa West 1.4 km/h 1.6 km/h 80% 0.0 mm 0 W/m2
21:24 16.2 °C 12.7 °C 1017.3 hPa Calm   1.6 km/h 80% 0.0 mm 0 W/m2
21:29 16.2 °C 12.7 °C 1016.9 hPa West 3.2 km/h 3.2 km/h 80% 0.0 mm 0 W/m2
21:34 16.2 °C 12.9 °C 1017.3 hPa Calm     81% 0.0 mm 0 W/m2
21:39 16.1 °C 12.8 °C 1017.3 hPa Calm     81% 0.0 mm 0 W/m2
21:44 16.1 °C 13 °C 1017.3 hPa Calm     82% 0.0 mm 0 W/m2
21:49 16 °C 12.9 °C 1017.3 hPa Calm     82% 0.0 mm 0 W/m2
21:54 15.9 °C 13 °C 1017.3 hPa Calm     83% 0.0 mm 0 W/m2
21:59 15.8 °C 12.9 °C 1017.3 hPa Calm     83% 0.0 mm 0 W/m2
22:04 15.7 °C 12.8 °C 1017.3 hPa Calm     83% 0.0 mm 0 W/m2
22:09 15.5 °C 12.6 °C 1017.3 hPa Calm     83% 0.0 mm 0 W/m2
22:14 15.3 °C 12.4 °C 1017.3 hPa Calm     83% 0.0 mm 0 W/m2
22:19 15.2 °C 12.5 °C 1017.3 hPa Calm     84% 0.0 mm 0 W/m2
22:24 15 °C 12.5 °C 1017.3 hPa Calm     85% 0.0 mm 0 W/m2
22:29 14.8 °C 12.3 °C 1017.3 hPa Calm     85% 0.0 mm 0 W/m2
22:34 14.6 °C 12.3 °C 1017.3 hPa Calm     86% 0.0 mm 0 W/m2
22:39 14.3 °C 12 °C 1017.3 hPa Calm     86% 0.0 mm 0 W/m2
22:44 14.2 °C 12.1 °C 1017.3 hPa Calm     87% 0.0 mm 0 W/m2
22:49 14.1 °C 12.1 °C 1017.3 hPa Calm     88% 0.0 mm 0 W/m2
22:54 13.9 °C 11.9 °C 1017.3 hPa Calm     88% 0.0 mm 0 W/m2
22:59 13.8 °C 12 °C 1017.3 hPa Calm     89% 0.0 mm 0 W/m2
23:04 13.7 °C 11.9 °C 1017.3 hPa Calm     89% 0.0 mm 0 W/m2
23:09 13.7 °C 11.9 °C 1017.3 hPa Calm     89% 0.0 mm 0 W/m2
23:14 13.5 °C 11.9 °C 1017.3 hPa Calm     90% 0.0 mm 0 W/m2
23:19 13.4 °C 11.8 °C 1017.3 hPa Calm     90% 0.0 mm 0 W/m2
23:24 13.3 °C 11.9 °C 1017.3 hPa Calm     91% 0.0 mm 0 W/m2
23:30 13.3 °C 11.9 °C 1017.3 hPa Calm     91% 0.0 mm 0 W/m2
23:35 13.2 °C 11.8 °C 1017.3 hPa Calm     91% 0.0 mm 0 W/m2
23:40 13.1 °C 11.7 °C 1017.6 hPa Calm     91% 0.0 mm 0 W/m2
23:45 13.1 °C 11.8 °C 1017.3 hPa Calm     92% 0.0 mm 0 W/m2
23:50 13.1 °C 11.8 °C 1017.6 hPa Calm     92% 0.0 mm 0 W/m2
23:55 13 °C 11.7 °C 1017.3 hPa Calm     92% 0.0 mm 0 W/m2
Juneau County Weather
Compliments of Weather Underground - 4 mb